createdAt,value
2023-01-23T00:00:13.051Z,4.85
2023-01-23T00:00:48.091Z,4.84
2023-01-23T00:01:26.425Z,4.84
2023-01-23T00:01:58.069Z,4.88
2023-01-23T00:02:31.390Z,4.86
2023-01-23T00:03:03.160Z,4.87
2023-01-23T00:03:36.349Z,4.87
2023-01-23T00:04:08.571Z,4.84
2023-01-23T00:04:40.277Z,4.84
2023-01-23T00:05:11.967Z,4.88
2023-01-23T00:05:48.781Z,4.85
2023-01-23T00:06:20.825Z,4.87
2023-01-23T00:06:52.551Z,4.85
2023-01-23T00:07:24.264Z,4.86
2023-01-23T00:07:55.908Z,4.86
2023-01-23T00:08:30.516Z,4.87
2023-01-23T00:09:04.888Z,4.84
2023-01-23T00:09:36.584Z,4.85
2023-01-23T00:10:10.791Z,4.86
2023-01-23T00:10:42.439Z,4.85
2023-01-23T00:11:19.651Z,4.86
2023-01-23T00:11:51.337Z,4.86
2023-01-23T00:12:23.025Z,4.86
2023-01-23T00:12:56.065Z,4.86
2023-01-23T00:13:27.721Z,4.85
2023-01-23T00:14:01.447Z,4.86
2023-01-23T00:14:35.612Z,4.86
2023-01-23T00:15:07.904Z,4.85
2023-01-23T00:15:40.309Z,4.85
2023-01-23T00:16:17.797Z,4.87
2023-01-23T00:16:49.480Z,4.86
2023-01-23T00:17:23.206Z,4.86
2023-01-23T00:17:54.833Z,4.87
2023-01-23T00:18:26.476Z,4.84
2023-01-23T00:18:58.614Z,4.86
2023-01-23T00:19:30.319Z,4.84
2023-01-23T00:20:04.609Z,4.85
2023-01-23T00:20:40.732Z,4.87
2023-01-23T00:21:18.933Z,4.86
2023-01-23T00:21:50.596Z,4.87
2023-01-23T00:22:24.865Z,4.86
2023-01-23T00:22:56.534Z,4.85
2023-01-23T00:23:28.170Z,4.85
2023-01-23T00:24:04.132Z,4.85
2023-01-23T00:24:35.817Z,4.86
2023-01-23T00:25:07.763Z,4.87
2023-01-23T00:25:39.445Z,4.86
2023-01-23T00:26:15.872Z,4.84
2023-01-23T00:26:47.570Z,4.87
2023-01-23T00:27:19.277Z,4.85
2023-01-23T00:27:50.957Z,4.90
2023-01-23T00:28:23.739Z,4.85
2023-01-23T00:28:58.737Z,4.86
2023-01-23T00:29:30.364Z,4.88
2023-01-23T00:30:01.993Z,4.86
2023-01-23T00:30:34.335Z,4.85
2023-01-23T00:31:09.936Z,4.85
2023-01-23T00:31:41.795Z,4.86
2023-01-23T00:32:13.510Z,4.86
2023-01-23T00:32:45.125Z,4.85
2023-01-23T00:33:16.827Z,4.86
2023-01-23T00:33:48.462Z,4.87
2023-01-23T00:34:20.173Z,4.87
2023-01-23T00:34:51.802Z,4.87
2023-01-23T00:35:23.491Z,4.86
2023-01-23T00:35:55.700Z,4.85
2023-01-23T00:36:38.010Z,4.87
2023-01-23T00:37:11.271Z,4.85
2023-01-23T00:37:43.629Z,4.84
2023-01-23T00:38:15.393Z,4.85
2023-01-23T00:38:47.055Z,4.88
2023-01-23T00:39:28.773Z,4.85
2023-01-23T00:40:00.395Z,4.91
2023-01-23T00:40:32.082Z,4.86
2023-01-23T00:41:04.515Z,4.87
2023-01-23T00:41:36.194Z,4.84
2023-01-23T00:42:07.848Z,4.86
2023-01-23T00:42:42.573Z,4.86
2023-01-23T00:43:16.505Z,4.86
2023-01-23T00:43:48.597Z,4.84
2023-01-23T00:44:20.335Z,4.85
2023-01-23T00:44:52.003Z,4.86
2023-01-23T00:45:23.637Z,4.86
2023-01-23T00:45:55.290Z,4.85
2023-01-23T00:46:27.071Z,4.85
2023-01-23T00:46:59.035Z,4.84
2023-01-23T00:47:30.841Z,4.84
2023-01-23T00:48:02.489Z,4.85
2023-01-23T00:48:34.155Z,4.85
2023-01-23T00:49:06.235Z,4.84
2023-01-23T00:49:37.941Z,4.84
2023-01-23T00:50:10.417Z,4.86
2023-01-23T00:50:42.306Z,4.87
2023-01-23T00:51:16.755Z,4.85
2023-01-23T00:51:48.528Z,4.85
2023-01-23T00:52:23.404Z,4.85
2023-01-23T00:52:55.127Z,4.85
2023-01-23T00:53:26.824Z,4.85
2023-01-23T00:53:58.692Z,4.85
2023-01-23T00:54:32.545Z,4.87
2023-01-23T00:55:05.198Z,4.85
2023-01-23T00:55:36.885Z,4.85
2023-01-23T00:56:09.007Z,4.85
2023-01-23T00:56:40.799Z,4.88
2023-01-23T00:57:12.429Z,4.87
2023-01-23T00:57:46.237Z,4.84
2023-01-23T00:58:18.640Z,4.87
2023-01-23T00:58:50.299Z,4.86
2023-01-23T00:59:21.937Z,4.86
2023-01-23T00:59:53.586Z,4.88
2023-01-23T01:00:25.882Z,4.87
2023-01-23T01:00:57.641Z,4.86
2023-01-23T01:01:33.672Z,4.84
2023-01-23T01:02:08.355Z,4.84
2023-01-23T01:02:40.021Z,4.85
2023-01-23T01:03:11.884Z,4.85
2023-01-23T01:03:44.938Z,4.86
2023-01-23T01:04:16.589Z,4.88
2023-01-23T01:04:50.386Z,4.88
2023-01-23T01:05:22.088Z,4.87
2023-01-23T01:05:54.005Z,4.86
2023-01-23T01:06:28.239Z,4.85
2023-01-23T01:07:01.923Z,4.88
2023-01-23T01:07:33.565Z,4.86
2023-01-23T01:08:05.636Z,4.86
2023-01-23T01:08:37.835Z,4.85
2023-01-23T01:09:09.522Z,4.88
2023-01-23T01:09:41.179Z,4.85
2023-01-23T01:10:21.271Z,4.85
2023-01-23T01:10:53.085Z,4.87
2023-01-23T01:11:26.560Z,4.89
2023-01-23T01:11:58.350Z,4.85
2023-01-23T01:12:32.239Z,4.86
2023-01-23T01:13:04.079Z,4.85
2023-01-23T01:13:36.020Z,4.86
2023-01-23T01:14:07.847Z,4.85
2023-01-23T01:14:39.491Z,4.88
2023-01-23T01:15:11.571Z,4.88
2023-01-23T01:15:45.367Z,4.85
2023-01-23T01:16:17.112Z,4.86
2023-01-23T01:16:51.440Z,4.85
2023-01-23T01:17:23.459Z,4.84
2023-01-23T01:17:55.217Z,4.84
2023-01-23T01:18:26.831Z,4.87
2023-01-23T01:19:00.741Z,4.85
2023-01-23T01:19:32.438Z,4.87
2023-01-23T01:20:06.913Z,4.86
2023-01-23T01:20:41.697Z,4.86
2023-01-23T01:21:15.250Z,4.86
2023-01-23T01:21:47.615Z,4.86
2023-01-23T01:22:19.242Z,4.86
2023-01-23T01:22:52.171Z,4.87
2023-01-23T01:23:26.199Z,4.86
2023-01-23T01:23:57.841Z,4.86
2023-01-23T01:24:29.533Z,4.85
2023-01-23T01:25:01.191Z,4.85
2023-01-23T01:25:33.007Z,4.87
2023-01-23T01:26:05.604Z,4.86
2023-01-23T01:26:37.295Z,4.87
2023-01-23T01:27:09.026Z,4.88
2023-01-23T01:27:40.794Z,4.85
2023-01-23T01:28:13.775Z,4.85
2023-01-23T01:28:45.443Z,4.85
2023-01-23T01:29:17.083Z,4.88
2023-01-23T01:29:51.487Z,4.85
2023-01-23T01:30:27.108Z,4.85
2023-01-23T01:31:05.822Z,4.84
2023-01-23T01:31:37.590Z,4.87
2023-01-23T01:32:11.845Z,4.85
2023-01-23T01:32:44.036Z,4.85
2023-01-23T01:33:18.745Z,4.86
2023-01-23T01:33:50.693Z,4.85
2023-01-23T01:34:23.642Z,4.88
2023-01-23T01:34:55.393Z,4.86
2023-01-23T01:35:27.015Z,4.86
2023-01-23T01:35:58.899Z,4.85
2023-01-23T01:36:30.544Z,4.87
2023-01-23T01:37:02.171Z,4.86
2023-01-23T01:37:34.936Z,4.85
2023-01-23T01:38:08.982Z,4.84
2023-01-23T01:38:41.381Z,4.85
2023-01-23T01:39:13.038Z,4.85
2023-01-23T01:39:44.716Z,4.83
2023-01-23T01:40:24.295Z,4.85
2023-01-23T01:40:57.315Z,4.87
2023-01-23T01:41:28.959Z,4.87
2023-01-23T01:42:03.222Z,4.89
2023-01-23T01:42:44.482Z,4.86
2023-01-23T01:43:20.759Z,4.84
2023-01-23T01:43:53.860Z,4.88
2023-01-23T01:44:25.506Z,4.86
2023-01-23T01:45:00.280Z,4.85
2023-01-23T01:46:02.461Z,4.86
2023-01-23T01:46:34.358Z,4.86
2023-01-23T01:47:08.825Z,4.86
2023-01-23T01:47:40.472Z,4.86
2023-01-23T01:48:12.220Z,4.88
2023-01-23T01:48:50.043Z,4.86
2023-01-23T01:49:30.086Z,4.88
2023-01-23T01:50:06.003Z,4.88
2023-01-23T01:50:37.982Z,4.84
2023-01-23T01:51:26.091Z,4.87
2023-01-23T01:52:06.548Z,4.84
2023-01-23T01:52:38.282Z,4.85
2023-01-23T01:53:11.371Z,4.86
2023-01-23T01:53:47.015Z,4.86
2023-01-23T01:54:21.682Z,4.85
2023-01-23T01:54:56.511Z,4.85
2023-01-23T01:55:29.217Z,4.85
2023-01-23T01:56:01.246Z,4.87
2023-01-23T01:56:40.072Z,4.85
2023-01-23T01:57:21.436Z,4.86
2023-01-23T01:57:54.366Z,4.87
2023-01-23T01:58:28.549Z,4.88
2023-01-23T01:59:02.658Z,4.85
2023-01-23T01:59:44.121Z,4.85
2023-01-23T02:00:20.105Z,4.85
2023-01-23T02:00:52.107Z,4.85
2023-01-23T02:01:24.105Z,4.87
2023-01-23T02:02:08.369Z,4.88
2023-01-23T02:03:01.010Z,4.85
2023-01-23T02:03:34.193Z,4.87
2023-01-23T02:04:06.738Z,4.85
2023-01-23T02:04:44.521Z,4.87
2023-01-23T02:05:21.059Z,4.86
2023-01-23T02:05:52.786Z,4.87
2023-01-23T02:06:25.552Z,4.87
2023-01-23T02:06:58.787Z,4.86
2023-01-23T02:07:38.868Z,4.86
2023-01-23T02:08:27.346Z,4.85
2023-01-23T02:09:11.198Z,4.87
2023-01-23T02:09:43.468Z,4.86
2023-01-23T02:10:16.717Z,4.86
2023-01-23T02:10:49.190Z,4.85
2023-01-23T02:11:28.474Z,4.86
2023-01-23T02:12:02.029Z,4.86
2023-01-23T02:12:35.318Z,4.86
2023-01-23T02:13:21.155Z,4.84
2023-01-23T02:13:55.361Z,4.84
2023-01-23T02:14:27.572Z,4.85
2023-01-23T02:14:59.516Z,4.84
2023-01-23T02:15:31.151Z,4.87
2023-01-23T02:16:17.996Z,4.85
2023-01-23T02:16:52.103Z,4.85
2023-01-23T02:17:23.969Z,4.87
2023-01-23T02:17:55.702Z,4.85
2023-01-23T02:18:29.878Z,4.85
2023-01-23T02:19:07.255Z,4.84
2023-01-23T02:20:22.268Z,4.84
2023-01-23T02:20:56.691Z,4.85
2023-01-23T02:21:32.176Z,4.87
2023-01-23T02:22:28.478Z,4.86
2023-01-23T02:23:09.521Z,4.85
2023-01-23T02:24:06.926Z,4.86
2023-01-23T02:24:59.118Z,4.85
2023-01-23T02:25:45.889Z,4.85
2023-01-23T02:26:23.960Z,4.85
2023-01-23T02:27:02.901Z,4.87
2023-01-23T02:27:34.571Z,4.88
2023-01-23T02:28:07.236Z,4.85
2023-01-23T02:28:46.028Z,4.85
2023-01-23T02:29:19.365Z,4.84
2023-01-23T02:29:54.748Z,4.83
2023-01-23T02:30:28.577Z,4.85
2023-01-23T02:31:00.233Z,4.86
2023-01-23T02:31:32.109Z,4.85
2023-01-23T02:32:06.349Z,4.85
2023-01-23T02:32:38.070Z,4.88
2023-01-23T02:33:30.111Z,4.85
2023-01-23T02:34:01.746Z,4.87
2023-01-23T02:34:35.821Z,4.88
2023-01-23T02:35:15.796Z,4.86
2023-01-23T02:35:47.618Z,4.87
2023-01-23T02:36:22.368Z,4.84
2023-01-23T02:36:54.600Z,4.85
2023-01-23T02:37:31.891Z,4.85
2023-01-23T02:38:05.659Z,4.86
2023-01-23T02:38:45.536Z,4.85
2023-01-23T02:39:21.998Z,4.91
2023-01-23T02:39:53.828Z,4.88
2023-01-23T02:40:39.745Z,4.85
2023-01-23T02:41:14.636Z,4.84
2023-01-23T02:41:48.843Z,4.85
2023-01-23T02:42:24.038Z,4.85
2023-01-23T02:42:56.385Z,4.87
2023-01-23T02:43:38.916Z,4.84
2023-01-23T02:44:26.694Z,4.86
2023-01-23T02:45:03.373Z,4.86
2023-01-23T02:45:35.693Z,4.88
2023-01-23T02:46:11.419Z,4.87
2023-01-23T02:46:43.385Z,4.85
2023-01-23T02:47:15.031Z,4.88
2023-01-23T02:47:46.685Z,4.87
2023-01-23T02:48:20.738Z,4.85
2023-01-23T02:48:52.489Z,4.84
2023-01-23T02:49:24.263Z,4.85
2023-01-23T02:49:57.902Z,4.87
2023-01-23T02:50:29.626Z,4.87
2023-01-23T02:51:01.302Z,4.87
2023-01-23T02:51:33.009Z,4.86
2023-01-23T02:52:05.869Z,4.84
2023-01-23T02:52:37.558Z,4.85
2023-01-23T02:53:09.321Z,4.86
2023-01-23T02:53:42.539Z,4.84
2023-01-23T02:54:14.386Z,4.84
2023-01-23T02:54:46.667Z,4.85
2023-01-23T02:55:18.369Z,4.84
2023-01-23T02:55:58.813Z,4.86
2023-01-23T02:56:33.526Z,4.86
2023-01-23T02:57:05.348Z,4.84
2023-01-23T02:57:37.018Z,4.86
2023-01-23T02:58:27.596Z,4.76
2023-01-23T02:59:18.132Z,4.76
2023-01-23T03:00:11.688Z,4.76
2023-01-23T03:00:46.387Z,4.85
2023-01-23T03:01:18.225Z,4.85
2023-01-23T03:01:50.053Z,4.86
2023-01-23T03:02:21.765Z,4.88
2023-01-23T03:02:55.012Z,4.85
2023-01-23T03:03:26.689Z,4.86
2023-01-23T03:04:08.514Z,4.85
2023-01-23T03:04:40.152Z,4.91
2023-01-23T03:05:11.787Z,4.86
2023-01-23T03:05:43.421Z,4.88
2023-01-23T03:06:17.000Z,4.85
2023-01-23T03:06:49.135Z,4.85
2023-01-23T03:07:20.770Z,4.87
2023-01-23T03:07:52.561Z,4.86
2023-01-23T03:08:26.639Z,4.88
2023-01-23T03:09:00.177Z,4.84
2023-01-23T03:09:34.459Z,4.86
2023-01-23T03:10:07.891Z,4.84
2023-01-23T03:10:39.578Z,4.85
2023-01-23T03:11:12.474Z,4.91
2023-01-23T03:11:45.933Z,4.85
2023-01-23T03:12:17.663Z,4.83
2023-01-23T03:12:49.337Z,4.86
2023-01-23T03:13:20.975Z,4.87
2023-01-23T03:13:52.752Z,4.85
2023-01-23T03:14:25.714Z,4.87
2023-01-23T03:15:01.111Z,4.85
2023-01-23T03:15:35.369Z,4.85
2023-01-23T03:16:07.636Z,4.86
2023-01-23T03:16:41.277Z,4.86
2023-01-23T03:17:17.254Z,4.86
2023-01-23T03:17:50.205Z,4.84
2023-01-23T03:18:21.910Z,4.85
2023-01-23T03:18:54.820Z,4.85
2023-01-23T03:19:27.141Z,4.86
2023-01-23T03:19:58.850Z,4.85
2023-01-23T03:20:30.665Z,4.86
2023-01-23T03:21:06.918Z,4.86
2023-01-23T03:21:40.677Z,4.87
2023-01-23T03:22:16.909Z,4.85
2023-01-23T03:22:48.614Z,4.85
2023-01-23T03:23:22.663Z,4.84
2023-01-23T03:23:54.377Z,4.86
2023-01-23T03:24:27.182Z,4.88
2023-01-23T03:24:58.914Z,4.86
2023-01-23T03:25:30.586Z,4.89
2023-01-23T03:26:02.279Z,4.85
2023-01-23T03:26:34.044Z,4.86
2023-01-23T03:27:07.995Z,4.86
2023-01-23T03:27:39.711Z,4.84
2023-01-23T03:28:31.318Z,4.84
2023-01-23T03:29:21.544Z,4.76
2023-01-23T03:30:19.082Z,4.76
2023-01-23T03:30:53.693Z,4.86
2023-01-23T03:31:28.182Z,4.87
2023-01-23T03:32:02.358Z,4.86
2023-01-23T03:32:34.060Z,4.86
2023-01-23T03:33:08.281Z,4.84
2023-01-23T03:33:43.471Z,4.84
2023-01-23T03:34:17.896Z,4.84
2023-01-23T03:34:49.576Z,4.86
2023-01-23T03:35:21.473Z,4.86
2023-01-23T03:35:53.185Z,4.86
2023-01-23T03:36:24.863Z,4.86
2023-01-23T03:36:56.573Z,4.85
2023-01-23T03:38:18.168Z,4.85
2023-01-23T03:39:08.375Z,4.76
2023-01-23T03:39:58.332Z,4.75
2023-01-23T03:40:48.434Z,4.76
2023-01-23T03:41:26.089Z,4.86
2023-01-23T03:41:57.756Z,4.86
2023-01-23T03:42:31.338Z,4.87
2023-01-23T03:43:03.206Z,4.87
2023-01-23T03:43:34.883Z,4.88
2023-01-23T03:44:06.563Z,4.84
2023-01-23T03:44:40.428Z,4.86
2023-01-23T03:45:14.136Z,4.85
2023-01-23T03:45:45.898Z,4.86
2023-01-23T03:46:17.773Z,4.85
2023-01-23T03:46:50.948Z,4.86
2023-01-23T03:47:22.672Z,4.88
2023-01-23T03:47:54.442Z,4.87
2023-01-23T03:48:26.322Z,4.84
2023-01-23T03:48:58.026Z,4.85
2023-01-23T03:49:31.163Z,4.87
2023-01-23T03:50:03.003Z,4.85
2023-01-23T03:50:34.716Z,4.86
2023-01-23T03:51:07.467Z,4.86
2023-01-23T03:51:39.195Z,4.86
2023-01-23T03:52:10.915Z,4.85
2023-01-23T03:52:44.206Z,4.89
2023-01-23T03:53:18.557Z,4.88
2023-01-23T03:53:52.816Z,4.84
2023-01-23T03:54:24.516Z,4.86
2023-01-23T03:54:56.148Z,4.86
2023-01-23T03:55:27.870Z,4.87
2023-01-23T03:55:59.489Z,4.87
2023-01-23T03:56:31.119Z,4.88
2023-01-23T03:57:05.219Z,4.85
2023-01-23T03:57:37.062Z,4.87
2023-01-23T03:58:08.709Z,4.87
2023-01-23T03:58:40.352Z,4.84
2023-01-23T03:59:12.014Z,4.87
2023-01-23T03:59:43.746Z,4.86
2023-01-23T04:00:17.023Z,4.85
2023-01-23T04:00:48.858Z,4.88
2023-01-23T04:01:20.662Z,4.85
2023-01-23T04:01:52.349Z,4.87
2023-01-23T04:02:24.728Z,4.85
2023-01-23T04:02:56.505Z,4.85
2023-01-23T04:03:28.220Z,4.84
2023-01-23T04:04:02.158Z,4.86
2023-01-23T04:04:35.037Z,4.88
2023-01-23T04:05:07.242Z,4.85
2023-01-23T04:05:38.905Z,4.85
2023-01-23T04:06:10.718Z,4.88
2023-01-23T04:06:42.375Z,4.86
2023-01-23T04:07:14.015Z,4.87
2023-01-23T04:07:55.647Z,4.84
2023-01-23T04:08:28.534Z,4.84
2023-01-23T04:09:00.173Z,4.86
2023-01-23T04:09:32.217Z,4.86
2023-01-23T04:10:04.172Z,4.87
2023-01-23T04:10:36.372Z,4.84
2023-01-23T04:11:10.571Z,4.85
2023-01-23T04:11:42.198Z,4.85
2023-01-23T04:12:13.988Z,4.88
2023-01-23T04:12:45.620Z,4.85
2023-01-23T04:13:17.404Z,4.87
2023-01-23T04:13:51.636Z,4.84
2023-01-23T04:14:25.461Z,4.86
2023-01-23T04:14:57.197Z,4.90
2023-01-23T04:15:28.829Z,4.85
2023-01-23T04:16:03.844Z,4.86
2023-01-23T04:16:37.847Z,4.86
2023-01-23T04:17:10.905Z,4.84
2023-01-23T04:17:44.783Z,4.84
2023-01-23T04:18:16.511Z,4.85
2023-01-23T04:18:48.838Z,4.85
2023-01-23T04:19:22.779Z,4.85
2023-01-23T04:19:54.540Z,4.85
2023-01-23T04:20:26.185Z,4.85
2023-01-23T04:20:58.478Z,4.84
2023-01-23T04:21:30.223Z,4.86
2023-01-23T04:22:02.184Z,4.85
2023-01-23T04:22:33.856Z,4.86
2023-01-23T04:23:06.042Z,4.84
2023-01-23T04:23:37.760Z,4.88
2023-01-23T04:24:09.413Z,4.88
2023-01-23T04:24:41.148Z,4.86
2023-01-23T04:25:12.774Z,4.85
2023-01-23T04:25:44.427Z,4.84
2023-01-23T04:26:16.067Z,4.86
2023-01-23T04:26:47.750Z,4.86
2023-01-23T04:27:19.394Z,4.87
2023-01-23T04:27:51.057Z,4.85
2023-01-23T04:28:23.151Z,4.84
2023-01-23T04:28:54.809Z,4.87
2023-01-23T04:29:26.558Z,4.87
2023-01-23T04:29:58.377Z,4.84
2023-01-23T04:30:32.239Z,4.87
2023-01-23T04:31:06.610Z,4.84
2023-01-23T04:31:38.649Z,4.85
2023-01-23T04:32:10.420Z,4.85
2023-01-23T04:32:44.417Z,4.85
2023-01-23T04:33:16.098Z,4.84
2023-01-23T04:33:47.752Z,4.86
2023-01-23T04:34:19.391Z,4.84
2023-01-23T04:34:51.329Z,4.86
2023-01-23T04:35:25.850Z,4.86
2023-01-23T04:36:00.028Z,4.86
2023-01-23T04:36:31.730Z,4.84
2023-01-23T04:37:03.412Z,4.86
2023-01-23T04:37:35.050Z,4.86
2023-01-23T04:38:06.732Z,4.85
2023-01-23T04:38:38.367Z,4.84
2023-01-23T04:39:10.054Z,4.86
2023-01-23T04:39:41.754Z,4.86
2023-01-23T04:40:13.586Z,4.84
2023-01-23T04:40:48.805Z,4.87
2023-01-23T04:41:26.651Z,4.87
2023-01-23T04:42:02.752Z,4.86
2023-01-23T04:42:34.471Z,4.83
2023-01-23T04:43:06.214Z,4.84
2023-01-23T04:43:37.901Z,4.83
2023-01-23T04:44:21.606Z,4.85
2023-01-23T04:44:53.287Z,4.85
2023-01-23T04:45:24.913Z,4.86
2023-01-23T04:45:57.373Z,4.84
2023-01-23T04:46:31.111Z,4.86
2023-01-23T04:47:02.860Z,4.85
2023-01-23T04:47:36.819Z,4.84
2023-01-23T04:48:08.491Z,4.87
2023-01-23T04:48:40.466Z,4.85
2023-01-23T04:49:12.159Z,4.87
2023-01-23T04:49:43.799Z,4.85
2023-01-23T04:50:24.401Z,4.84
2023-01-23T04:50:56.122Z,4.85
2023-01-23T04:51:27.838Z,4.87
2023-01-23T04:52:01.894Z,4.85
2023-01-23T04:52:33.540Z,4.88
2023-01-23T04:53:08.872Z,4.85
2023-01-23T04:53:43.330Z,4.85
2023-01-23T04:54:15.897Z,4.87
2023-01-23T04:54:50.113Z,4.84
2023-01-23T04:55:22.904Z,4.84
2023-01-23T04:55:56.986Z,4.84
2023-01-23T04:56:28.610Z,4.85
2023-01-23T04:57:00.402Z,4.86
2023-01-23T04:57:33.228Z,4.84
2023-01-23T04:58:04.973Z,4.83
2023-01-23T04:58:36.614Z,4.86
2023-01-23T04:59:08.367Z,4.84
2023-01-23T04:59:40.056Z,4.84
2023-01-23T05:00:13.405Z,4.85
2023-01-23T05:00:45.925Z,4.86
2023-01-23T05:01:23.152Z,4.83
2023-01-23T05:01:56.908Z,4.85
2023-01-23T05:02:31.004Z,4.85
2023-01-23T05:03:05.500Z,4.86
2023-01-23T05:03:37.410Z,4.84
2023-01-23T05:04:16.683Z,4.84
2023-01-23T05:04:50.595Z,4.85
2023-01-23T05:05:22.627Z,4.85
2023-01-23T05:05:54.258Z,4.86
2023-01-23T05:06:26.201Z,4.83
2023-01-23T05:07:00.028Z,4.85
2023-01-23T05:07:33.848Z,4.86
2023-01-23T05:08:05.850Z,4.84
2023-01-23T05:08:37.508Z,4.85
2023-01-23T05:09:09.208Z,4.84
2023-01-23T05:09:41.401Z,4.84
2023-01-23T05:10:13.696Z,4.84
2023-01-23T05:10:45.795Z,4.86
2023-01-23T05:11:17.660Z,4.84
2023-01-23T05:11:49.343Z,4.85
2023-01-23T05:12:25.854Z,4.84
2023-01-23T05:12:57.533Z,4.84
2023-01-23T05:13:31.064Z,4.83
2023-01-23T05:14:02.979Z,4.83
2023-01-23T05:14:34.749Z,4.84
2023-01-23T05:15:08.336Z,4.85
2023-01-23T05:15:40.099Z,4.83
2023-01-23T05:16:12.275Z,4.85
2023-01-23T05:16:44.000Z,4.84
2023-01-23T05:17:15.716Z,4.84
2023-01-23T05:17:48.630Z,4.84
2023-01-23T05:18:22.370Z,4.83
2023-01-23T05:19:40.767Z,4.83
2023-01-23T05:20:12.487Z,4.83
2023-01-23T05:20:46.714Z,4.86
2023-01-23T05:21:18.350Z,4.84
2023-01-23T05:21:50.112Z,4.82
2023-01-23T05:22:22.809Z,4.83
2023-01-23T05:22:54.526Z,4.83
2023-01-23T05:23:26.161Z,4.85
2023-01-23T05:23:57.825Z,4.84
2023-01-23T05:24:29.481Z,4.85
2023-01-23T05:25:01.273Z,4.84
2023-01-23T05:25:32.900Z,4.84
2023-01-23T05:26:04.699Z,4.85
2023-01-23T05:26:36.454Z,4.84
2023-01-23T05:27:08.107Z,4.84
2023-01-23T05:27:39.728Z,4.84
2023-01-23T05:28:11.819Z,4.85
2023-01-23T05:28:43.669Z,4.84
2023-01-23T05:29:15.353Z,4.84
2023-01-23T05:29:47.037Z,4.87
2023-01-23T05:30:23.859Z,4.84
2023-01-23T05:31:06.469Z,4.83
2023-01-23T05:31:38.292Z,4.85
2023-01-23T05:32:10.028Z,4.84
2023-01-23T05:32:44.320Z,4.86
2023-01-23T05:33:17.651Z,4.85
2023-01-23T05:33:49.320Z,4.84
2023-01-23T05:34:21.011Z,4.83
2023-01-23T05:34:52.678Z,4.83
2023-01-23T05:35:24.351Z,4.83
2023-01-23T05:36:00.394Z,4.83
2023-01-23T05:36:32.049Z,4.85
2023-01-23T05:37:06.272Z,4.84
2023-01-23T05:37:38.249Z,4.86
2023-01-23T05:38:14.659Z,4.84
2023-01-23T05:38:46.360Z,4.85
2023-01-23T05:39:17.985Z,4.84
2023-01-23T05:39:49.652Z,4.84
2023-01-23T05:40:21.923Z,4.83
2023-01-23T05:40:53.988Z,4.86
2023-01-23T05:41:25.830Z,4.84
2023-01-23T05:41:57.463Z,4.86
2023-01-23T05:42:29.088Z,4.83
2023-01-23T05:43:00.713Z,4.86
2023-01-23T05:43:32.361Z,4.84
2023-01-23T05:44:04.043Z,4.84
2023-01-23T05:44:35.674Z,4.84
2023-01-23T05:45:07.705Z,4.83
2023-01-23T05:45:39.346Z,4.85
2023-01-23T05:46:13.720Z,4.84
2023-01-23T05:46:45.439Z,4.83
2023-01-23T05:47:19.915Z,4.84
2023-01-23T05:47:54.742Z,4.84
2023-01-23T05:48:26.434Z,4.84
2023-01-23T05:48:58.185Z,4.85
2023-01-23T05:49:29.828Z,4.83
2023-01-23T05:50:01.761Z,4.84
2023-01-23T05:50:36.256Z,4.84
2023-01-23T05:51:08.136Z,4.83
2023-01-23T05:51:39.805Z,4.85
2023-01-23T05:52:12.176Z,4.84
2023-01-23T05:52:44.567Z,4.84
2023-01-23T05:53:18.250Z,4.83
2023-01-23T05:53:49.957Z,4.86
2023-01-23T05:54:23.893Z,4.84
2023-01-23T05:54:55.541Z,4.87
2023-01-23T05:55:27.271Z,4.85
2023-01-23T05:55:59.891Z,4.85
2023-01-23T05:56:31.590Z,4.84
2023-01-23T05:57:03.462Z,4.87
2023-01-23T05:57:35.820Z,4.85
2023-01-23T05:58:07.619Z,4.83
2023-01-23T05:58:39.260Z,4.84
2023-01-23T05:59:10.974Z,4.84
2023-01-23T05:59:42.614Z,4.85
2023-01-23T06:00:18.093Z,4.84
2023-01-23T06:00:49.833Z,4.84
2023-01-23T06:01:22.051Z,4.84
2023-01-23T06:01:53.689Z,4.84
2023-01-23T06:02:25.412Z,4.84
2023-01-23T06:02:58.667Z,4.83
2023-01-23T06:03:33.157Z,4.84
2023-01-23T06:04:09.929Z,4.83
2023-01-23T06:04:41.768Z,4.84
2023-01-23T06:05:13.509Z,4.84
2023-01-23T06:05:45.127Z,4.83
2023-01-23T06:06:19.458Z,4.85
2023-01-23T06:06:51.112Z,4.87
2023-01-23T06:07:22.838Z,4.83
2023-01-23T06:07:54.544Z,4.84
2023-01-23T06:08:26.164Z,4.83
2023-01-23T06:08:59.910Z,4.83
2023-01-23T06:09:31.643Z,4.81
2023-01-23T06:10:04.096Z,4.84
2023-01-23T06:10:38.423Z,4.82
2023-01-23T06:11:10.158Z,4.84
2023-01-23T06:11:44.176Z,4.87
2023-01-23T06:12:20.033Z,4.82
2023-01-23T06:12:51.782Z,4.84
2023-01-23T06:13:25.507Z,4.83
2023-01-23T06:13:57.135Z,4.82
2023-01-23T06:14:28.830Z,4.85
2023-01-23T06:15:00.495Z,4.81
2023-01-23T06:15:32.231Z,4.82
2023-01-23T06:16:04.341Z,4.84
2023-01-23T06:16:36.044Z,4.83
2023-01-23T06:17:10.038Z,4.84
2023-01-23T06:17:41.796Z,4.83
2023-01-23T06:18:13.566Z,4.83
2023-01-23T06:18:45.266Z,4.82
2023-01-23T06:19:16.890Z,4.82
2023-01-23T06:19:49.005Z,4.85
2023-01-23T06:20:21.379Z,4.77
2023-01-23T06:20:59.007Z,4.84
2023-01-23T06:21:33.015Z,4.79
2023-01-23T06:22:06.704Z,4.82
2023-01-23T06:22:38.389Z,4.85
2023-01-23T06:23:10.186Z,4.83
2023-01-23T06:23:41.803Z,4.80
2023-01-23T06:24:13.715Z,4.78
2023-01-23T06:24:47.713Z,4.82
2023-01-23T06:25:22.861Z,4.79
2023-01-23T06:25:56.038Z,4.80
2023-01-23T06:26:27.711Z,4.80
2023-01-23T06:26:59.385Z,4.80
2023-01-23T06:27:31.006Z,4.82
2023-01-23T06:28:02.779Z,4.84
2023-01-23T06:28:36.547Z,4.84
2023-01-23T06:29:10.938Z,4.81
2023-01-23T06:29:45.448Z,4.83
2023-01-23T06:30:18.501Z,4.80
2023-01-23T06:31:00.299Z,4.85
2023-01-23T06:31:32.654Z,4.80
2023-01-23T06:32:05.416Z,4.81
2023-01-23T06:32:38.997Z,4.82
2023-01-23T06:33:10.632Z,4.83
2023-01-23T06:33:45.502Z,4.82
2023-01-23T06:34:17.335Z,4.79
2023-01-23T06:34:49.547Z,4.81
2023-01-23T06:35:24.046Z,4.79
2023-01-23T06:36:06.219Z,4.82
2023-01-23T06:36:40.692Z,4.82
2023-01-23T06:37:12.341Z,4.81
2023-01-23T06:37:46.886Z,4.79
2023-01-23T06:38:21.381Z,4.80
2023-01-23T06:38:53.336Z,4.83
2023-01-23T06:39:25.045Z,4.79
2023-01-23T06:39:56.740Z,4.86
2023-01-23T06:40:28.371Z,4.83
2023-01-23T06:41:00.297Z,4.81
2023-01-23T06:41:31.913Z,4.79
2023-01-23T06:42:05.936Z,4.78
2023-01-23T06:42:37.606Z,4.80
2023-01-23T06:43:09.248Z,4.82
2023-01-23T06:43:49.318Z,4.82
2023-01-23T06:44:23.802Z,4.81
2023-01-23T06:44:55.420Z,4.79
2023-01-23T06:45:27.089Z,4.82
2023-01-23T06:45:58.988Z,4.82
2023-01-23T06:46:30.754Z,4.80
2023-01-23T06:47:02.547Z,4.79
2023-01-23T06:47:34.185Z,4.83
2023-01-23T06:48:06.081Z,4.80
2023-01-23T06:48:38.466Z,4.79
2023-01-23T06:49:10.307Z,4.78
2023-01-23T06:49:41.975Z,4.78
2023-01-23T06:50:13.612Z,4.83
2023-01-23T06:50:45.282Z,4.80
2023-01-23T06:51:16.944Z,4.79
2023-01-23T06:51:48.635Z,4.81
2023-01-23T06:52:20.326Z,4.80
2023-01-23T06:52:51.975Z,4.78
2023-01-23T06:53:25.961Z,4.80
2023-01-23T06:53:57.592Z,4.80
2023-01-23T06:54:29.254Z,4.78
2023-01-23T06:55:00.896Z,4.82
2023-01-23T06:55:33.420Z,4.78
2023-01-23T06:56:10.016Z,4.83
2023-01-23T06:56:41.667Z,4.82
2023-01-23T06:57:13.464Z,4.79
2023-01-23T06:57:45.133Z,4.79
2023-01-23T06:58:16.772Z,4.79
2023-01-23T06:58:48.839Z,4.78
2023-01-23T06:59:20.491Z,4.78
2023-01-23T06:59:52.329Z,4.82
2023-01-23T07:00:24.351Z,4.79
2023-01-23T07:00:56.565Z,4.80
2023-01-23T07:01:29.132Z,4.77
2023-01-23T07:02:03.398Z,4.77
2023-01-23T07:02:35.058Z,4.79
2023-01-23T07:03:06.888Z,4.82
2023-01-23T07:03:38.567Z,4.81
2023-01-23T07:04:10.339Z,4.78
2023-01-23T07:04:43.092Z,4.82
2023-01-23T07:05:14.952Z,4.77
2023-01-23T07:05:46.731Z,4.78
2023-01-23T07:06:18.649Z,4.77
2023-01-23T07:06:50.304Z,4.79
2023-01-23T07:07:21.983Z,4.78
2023-01-23T07:07:53.617Z,4.80
2023-01-23T07:08:27.698Z,4.79
2023-01-23T07:09:06.501Z,4.79
2023-01-23T07:09:38.149Z,4.79
2023-01-23T07:10:10.715Z,4.81
2023-01-23T07:10:42.401Z,4.77
2023-01-23T07:11:14.120Z,4.78
2023-01-23T07:11:45.744Z,4.80
2023-01-23T07:12:17.420Z,4.80
2023-01-23T07:12:50.608Z,4.78
2023-01-23T07:13:22.263Z,4.78
2023-01-23T07:13:54.168Z,4.77
2023-01-23T07:14:27.199Z,4.76
2023-01-23T07:14:58.895Z,4.83
2023-01-23T07:15:30.551Z,4.83
2023-01-23T07:16:02.759Z,4.79
2023-01-23T07:16:38.414Z,4.77
2023-01-23T07:17:16.072Z,4.81
2023-01-23T07:17:49.868Z,4.78
2023-01-23T07:18:24.372Z,4.79
2023-01-23T07:18:59.013Z,4.77
2023-01-23T07:19:32.559Z,4.79
2023-01-23T07:20:05.198Z,4.77
2023-01-23T07:20:38.367Z,4.77
2023-01-23T07:21:10.096Z,4.78
2023-01-23T07:21:41.742Z,4.82
2023-01-23T07:22:16.640Z,4.79
2023-01-23T07:22:49.545Z,4.77
2023-01-23T07:23:22.007Z,4.78
2023-01-23T07:23:55.407Z,4.79
2023-01-23T07:24:32.892Z,4.78
2023-01-23T07:25:07.290Z,4.77
2023-01-23T07:25:39.448Z,4.78
2023-01-23T07:26:12.154Z,4.77
2023-01-23T07:26:43.813Z,4.83
2023-01-23T07:27:16.219Z,4.80
2023-01-23T07:27:48.279Z,4.78
2023-01-23T07:28:19.964Z,4.80